Time;durP1;ratioP1;P1;durP2;ratioP2;P2;SDS_P1;SDS_P2;PMS_P1;PMS_P2;Temp;Humidity;BMP_temperature;BMP_pressure;BME280_temperature;BME280_humidity;BME280_pressure;Samples;Min_cycle;Max_cycle;Signal;HPM_P1;HPM_P2
2022/10/18 00:02:18;;;;;;;7.60;4.03;;;;;;;13.48;65.54;100018.13;4993818;28;20135;-62
2022/10/18 00:05:04;;;;;;;8.25;3.80;;;;;;;13.42;65.88;100011.47;4989348;28;20461;-61
2022/10/18 00:07:48;;;;;;;7.70;4.05;;;;;;;13.49;65.92;100006.69;5006471;28;20038;-61
2022/10/18 00:10:34;;;;;;;13.85;4.65;;;;;;;13.38;66.38;100007.31;4990835;28;20042;-62
2022/10/18 00:13:19;;;;;;;7.18;4.50;;;;;;;13.37;66.77;100015.28;4993021;28;20034;-62
2022/10/18 00:16:08;;;;;;;9.25;3.90;;;;;;;13.36;66.85;100011.84;4988952;28;20046;-62
2022/10/18 00:18:53;;;;;;;6.60;3.65;;;;;;;13.35;66.52;100012.75;4999114;28;20054;-61
2022/10/18 00:21:37;;;;;;;7.20;4.28;;;;;;;13.38;66.00;100012.56;4991643;28;20109;-61
2022/10/18 00:24:22;;;;;;;6.25;3.45;;;;;;;13.11;67.50;100007.19;4998531;28;20100;-62
2022/10/18 00:27:06;;;;;;;7.75;4.80;;;;;;;13.17;67.57;100010.31;5009623;28;20058;-62
2022/10/18 00:29:52;;;;;;;9.57;4.13;;;;;;;13.21;67.66;100012.75;4992333;28;20072;-62
2022/10/18 00:32:41;;;;;;;7.20;4.32;;;;;;;13.15;67.40;100009.53;4999674;28;20390;-62
2022/10/18 00:35:26;;;;;;;6.60;3.72;;;;;;;13.08;67.71;100013.50;4992060;28;20034;-61
2022/10/18 00:38:11;;;;;;;7.72;4.15;;;;;;;13.16;67.60;100000.72;4994602;28;20124;-62
2022/10/18 00:40:54;;;;;;;9.38;4.80;;;;;;;13.03;67.98;99997.97;4989518;28;20042;-61
2022/10/18 00:43:58;;;;;;;7.47;4.43;;;;;;;13.00;68.15;99998.16;4989371;28;20046;-61
2022/10/18 00:46:48;;;;;;;6.93;4.35;;;;;;;12.92;68.93;99985.47;4990820;28;20042;-61
2022/10/18 00:50:00;;;;;;;7.78;4.28;;;;;;;12.88;69.06;99988.34;4993931;28;20427;-62
2022/10/18 00:52:50;;;;;;;10.15;4.45;;;;;;;13.01;68.31;99985.84;4991387;28;20128;-62
2022/10/18 00:55:35;;;;;;;8.43;4.20;;;;;;;12.84;68.93;99984.22;4989844;28;20535;-61
2022/10/18 00:58:20;;;;;;;9.30;4.32;;;;;;;12.88;68.78;99985.72;4992031;28;20366;-61
2022/10/18 01:01:05;;;;;;;8.95;4.55;;;;;;;12.76;69.62;99984.69;4990467;28;20118;-61
2022/10/18 01:03:51;;;;;;;7.80;4.25;;;;;;;12.84;69.07;99976.34;4993103;28;20042;-61
2022/10/18 01:06:58;;;;;;;9.52;4.55;;;;;;;12.87;68.76;99976.16;5002399;28;20049;-62
2022/10/18 01:10:01;;;;;;;6.10;4.28;;;;;;;12.99;68.05;99979.84;4992242;28;20516;-60
2022/10/18 01:12:56;;;;;;;7.20;4.32;;;;;;;12.98;67.99;99975.50;4988115;28;20462;-61
2022/10/18 01:16:13;;;;;;;7.75;4.10;;;;;;;13.07;67.70;99977.59;4987475;28;20069;-61
2022/10/18 01:19:24;;;;;;;8.07;4.10;;;;;;;12.94;68.51;99986.22;4935261;29;20041;-61
2022/10/18 01:22:38;;;;;;;8.35;4.40;;;;;;;13.14;67.00;99965.75;4934618;29;20064;-61
2022/10/18 01:25:28;;;;;;;7.07;4.47;;;;;;;13.09;67.29;99975.72;4907360;29;20469;-61
2022/10/18 01:28:38;;;;;;;7.20;4.78;;;;;;;13.10;67.05;99960.78;4905627;29;20191;-60
2022/10/18 01:31:30;;;;;;;6.43;3.80;;;;;;;13.24;66.46;99959.94;4907985;29;20054;-61
2022/10/18 01:34:17;;;;;;;6.05;3.50;;;;;;;13.12;66.48;99945.75;4907955;29;20103;-61
2022/10/18 01:37:06;;;;;;;9.30;4.13;;;;;;;13.10;67.16;99966.91;4908489;29;20052;-62
2022/10/18 01:39:55;;;;;;;6.72;4.63;;;;;;;12.92;67.46;99959.19;4897557;29;20135;-61
2022/10/18 01:42:41;;;;;;;8.00;4.10;;;;;;;12.91;67.53;99954.84;4908998;29;20082;-61
2022/10/18 01:45:27;;;;;;;6.70;4.45;;;;;;;12.91;67.47;99962.72;4911112;29;20040;-60
2022/10/18 01:48:12;;;;;;;7.32;4.05;;;;;;;12.96;67.35;99944.03;4912219;29;20123;-61
2022/10/18 01:50:58;;;;;;;8.18;4.75;;;;;;;12.86;67.57;99946.38;4892350;29;20158;-61
2022/10/18 01:53:42;;;;;;;7.78;4.43;;;;;;;12.85;67.57;99947.31;4920433;29;20375;-60
2022/10/18 01:56:40;;;;;;;6.60;4.13;;;;;;;12.69;68.48;99952.63;4947705;28;20055;-61
2022/10/18 01:59:46;;;;;;;7.65;4.15;;;;;;;12.47;69.38;99942.53;4947225;28;20236;-61
2022/10/18 02:02:47;;;;;;;11.38;4.78;;;;;;;12.38;69.83;99946.53;4977086;28;20070;-61
2022/10/18 02:06:24;;;;;;;7.75;5.03;;;;;;;12.45;69.38;99934.75;4990551;28;20065;-61
2022/10/18 02:09:15;;;;;;;8.32;5.15;;;;;;;12.42;69.22;99937.53;4950504;29;20039;-60
2022/10/18 02:12:02;;;;;;;9.23;4.70;;;;;;;12.41;69.32;99933.19;4947406;29;20171;-61
2022/10/18 02:14:49;;;;;;;8.50;4.35;;;;;;;12.39;69.50;99938.56;4949543;29;20051;-62
2022/10/18 02:17:34;;;;;;;8.48;4.65;;;;;;;12.26;70.02;99924.41;4947122;28;20134;-62
2022/10/18 02:20:23;;;;;;;7.10;4.65;;;;;;;12.23;70.17;99927.22;4950346;28;20047;-62
2022/10/18 02:23:10;;;;;;;8.02;4.68;;;;;;;12.30;69.78;99929.44;4949216;28;20047;-62
2022/10/18 02:25:54;;;;;;;7.78;4.85;;;;;;;12.26;70.71;99929.66;4936688;28;20051;-62
2022/10/18 02:28:39;;;;;;;9.80;4.75;;;;;;;11.99;71.86;99923.25;4948564;29;20248;-61
2022/10/18 02:31:32;;;;;;;6.00;4.07;;;;;;;12.16;70.43;99930.19;4949823;29;20054;-62
2022/10/18 02:34:19;;;;;;;5.85;4.25;;;;;;;12.19;70.49;99937.06;4946866;28;20086;-61
2022/10/18 02:37:04;;;;;;;7.10;4.05;;;;;;;12.12;70.57;99922.59;4947968;29;20055;-62
2022/10/18 02:39:50;;;;;;;8.60;4.63;;;;;;;12.06;70.81;99934.28;4949978;29;20046;-61
2022/10/18 02:42:37;;;;;;;8.45;4.50;;;;;;;12.04;71.09;99933.50;4947584;29;20043;-61
2022/10/18 02:45:22;;;;;;;8.98;4.40;;;;;;;12.00;71.18;99934.59;4983463;28;20124;-61
2022/10/18 02:48:06;;;;;;;8.30;4.22;;;;;;;12.12;70.44;99938.34;4979028;28;20438;-61
2022/10/18 02:50:51;;;;;;;6.47;4.72;;;;;;;12.03;70.45;99929.16;4994096;28;20046;-61
2022/10/18 02:53:35;;;;;;;9.82;4.53;;;;;;;11.84;71.61;99930.19;4993943;28;20060;-61
2022/10/18 02:56:20;;;;;;;8.30;4.20;;;;;;;12.01;70.87;99938.94;4994173;28;20117;-61
2022/10/18 02:59:06;;;;;;;6.15;4.00;;;;;;;12.04;70.69;99929.09;5008013;28;20037;-61
2022/10/18 03:01:50;;;;;;;7.13;5.10;;;;;;;11.97;71.10;99919.00;4990966;28;20088;-60
2022/10/18 03:04:50;;;;;;;6.97;5.30;;;;;;;11.76;71.93;99920.13;4992893;28;20373;-61
2022/10/18 03:07:46;;;;;;;9.05;4.95;;;;;;;11.68;72.08;99923.19;4991449;28;20402;-61
2022/10/18 03:10:53;;;;;;;7.70;4.65;;;;;;;11.64;72.88;99913.78;4971952;28;20050;-62
2022/10/18 03:13:40;;;;;;;7.25;5.07;;;;;;;11.44;74.08;99926.19;4994707;28;20125;-62
2022/10/18 03:16:25;;;;;;;7.22;5.28;;;;;;;11.48;74.40;99913.75;4978004;28;20042;-61
2022/10/18 03:19:10;;;;;;;8.05;5.47;;;;;;;11.41;74.27;99915.00;4992550;28;20042;-62
2022/10/18 03:22:00;;;;;;;9.02;5.50;;;;;;;11.41;74.28;99918.47;4989622;28;20038;-61
2022/10/18 03:24:45;;;;;;;12.82;5.07;;;;;;;11.40;74.61;99926.44;4992022;28;20161;-62
2022/10/18 03:27:29;;;;;;;10.65;5.72;;;;;;;11.32;75.42;99929.47;4993701;28;20070;-62
2022/10/18 03:30:14;;;;;;;12.35;5.07;;;;;;;11.37;74.79;99930.09;4994558;28;20077;-61
2022/10/18 03:32:58;;;;;;;8.57;5.03;;;;;;;11.41;74.08;99931.59;4989015;28;20038;-63
2022/10/18 03:35:43;;;;;;;8.15;4.88;;;;;;;11.50;73.26;99940.78;4989268;28;20047;-61
2022/10/18 03:38:28;;;;;;;9.07;4.90;;;;;;;11.76;70.76;99935.03;4992516;28;20050;-62
2022/10/18 03:41:12;;;;;;;6.32;3.88;;;;;;;11.92;69.84;99945.53;4992641;28;20038;-62
2022/10/18 03:43:57;;;;;;;7.95;4.13;;;;;;;12.11;68.66;99941.91;4990226;28;20412;-62
2022/10/18 03:46:42;;;;;;;6.50;4.47;;;;;;;12.13;68.14;99945.28;4988940;28;20038;-62
2022/10/18 03:49:26;;;;;;;10.98;4.85;;;;;;;11.93;70.01;99940.19;4991252;28;20056;-64
2022/10/18 03:52:11;;;;;;;11.50;4.88;;;;;;;11.52;72.87;99938.88;4990529;28;20129;-62
2022/10/18 03:54:55;;;;;;;9.80;4.68;;;;;;;11.38;74.07;99934.41;4995162;28;20042;-62
2022/10/18 03:57:40;;;;;;;9.23;4.63;;;;;;;11.51;72.52;99938.97;4994077;28;20069;-62
2022/10/18 04:00:25;;;;;;;6.63;4.53;;;;;;;11.58;72.33;99938.59;4976298;28;20049;-62
2022/10/18 04:03:09;;;;;;;8.55;5.05;;;;;;;11.39;73.81;99933.44;4993529;28;20386;-62
2022/10/18 04:05:54;;;;;;;8.68;5.78;;;;;;;11.29;74.04;99935.72;4990300;28;20042;-62
2022/10/18 04:08:38;;;;;;;7.43;4.82;;;;;;;11.36;73.66;99931.00;4990762;28;20034;-63
2022/10/18 04:11:23;;;;;;;7.75;4.63;;;;;;;11.34;73.10;99927.63;4991708;28;20050;-62
2022/10/18 04:14:09;;;;;;;7.75;4.60;;;;;;;11.49;72.17;99923.31;5002703;28;20059;-62
2022/10/18 04:16:54;;;;;;;6.90;4.15;;;;;;;11.54;71.73;99933.56;4988773;28;20104;-62
2022/10/18 04:19:39;;;;;;;7.45;4.55;;;;;;;11.56;71.56;99932.56;4993791;28;20082;-63
2022/10/18 04:22:24;;;;;;;9.88;5.10;;;;;;;11.38;73.27;99928.28;4989574;28;20046;-62
2022/10/18 04:25:08;;;;;;;6.90;4.68;;;;;;;11.37;72.82;99929.22;4989745;28;20112;-62
2022/10/18 04:27:53;;;;;;;7.72;4.80;;;;;;;11.36;72.81;99930.16;4990087;28;20206;-62
2022/10/18 04:30:38;;;;;;;8.32;4.55;;;;;;;11.65;70.14;99930.38;4994105;28;20109;-62
2022/10/18 04:33:22;;;;;;;11.27;4.55;;;;;;;11.78;69.16;99927.91;4990667;28;20493;-62
2022/10/18 04:36:07;;;;;;;9.15;4.57;;;;;;;11.68;68.87;99924.94;5002609;28;20034;-62
2022/10/18 04:38:52;;;;;;;7.70;4.28;;;;;;;12.01;67.13;99923.16;4991491;28;20653;-62
2022/10/18 04:41:38;;;;;;;7.22;4.32;;;;;;;11.99;68.21;99918.00;4990994;28;20046;-62
2022/10/18 04:44:22;;;;;;;13.02;4.88;;;;;;;11.87;68.60;99916.91;4991686;28;20053;-63
2022/10/18 04:47:07;;;;;;;11.13;4.75;;;;;;;11.90;68.71;99914.09;4990428;28;20053;-63
2022/10/18 04:49:51;;;;;;;6.65;4.18;;;;;;;11.80;69.75;99920.81;4988460;28;20065;-62
2022/10/18 04:52:36;;;;;;;5.88;3.80;;;;;;;11.93;68.56;99911.31;5003890;28;20092;-61
2022/10/18 04:55:20;;;;;;;7.05;4.55;;;;;;;11.76;68.86;99914.88;4986655;28;20039;-62
2022/10/18 04:58:05;;;;;;;9.52;4.35;;;;;;;11.71;69.50;99911.66;4990516;28;20072;-62
2022/10/18 05:00:50;;;;;;;8.32;5.32;;;;;;;11.61;71.33;99910.44;4992485;28;20084;-61
2022/10/18 05:03:36;;;;;;;8.77;5.30;;;;;;;11.55;71.90;99912.50;4987649;28;20038;-62
2022/10/18 05:06:21;;;;;;;8.05;4.50;;;;;;;11.47;72.32;99919.94;5002610;28;20053;-60
2022/10/18 05:09:05;;;;;;;8.93;5.18;;;;;;;11.58;71.07;99925.47;4990976;28;20042;-62
2022/10/18 05:11:50;;;;;;;12.05;5.28;;;;;;;11.61;70.78;99916.56;4990055;28;20112;-62
2022/10/18 05:14:35;;;;;;;9.57;5.03;;;;;;;11.67;70.15;99918.84;4988466;28;20053;-61
2022/10/18 05:17:19;;;;;;;8.90;5.03;;;;;;;11.60;70.89;99919.28;4992641;28;20031;-61
2022/10/18 05:20:04;;;;;;;8.88;5.40;;;;;;;11.55;71.12;99909.03;4999005;28;20357;-62
2022/10/18 05:22:49;;;;;;;7.15;4.85;;;;;;;11.59;71.13;99913.16;4987953;28;20132;-61
2022/10/18 05:25:33;;;;;;;6.45;4.72;;;;;;;12.00;67.65;99908.31;4994760;28;20034;-61
2022/10/18 05:28:18;;;;;;;8.30;5.15;;;;;;;11.93;68.87;99911.31;4992365;28;20042;-60
2022/10/18 05:31:05;;;;;;;10.82;5.10;;;;;;;11.77;70.26;99918.34;4993470;28;20043;-62
2022/10/18 05:33:49;;;;;;;9.63;5.20;;;;;;;11.68;70.94;99920.56;4990117;28;20034;-63
2022/10/18 05:36:34;;;;;;;11.10;5.20;;;;;;;11.86;69.94;99930.97;4993984;28;20490;-61
2022/10/18 05:39:19;;;;;;;9.40;5.20;;;;;;;11.90;70.37;99932.47;4990023;28;20129;-61
2022/10/18 05:42:07;;;;;;;6.40;5.28;;;;;;;11.94;70.42;99930.53;4987534;28;20038;-62
2022/10/18 05:44:51;;;;;;;7.93;4.57;;;;;;;12.10;69.32;99922.69;4991594;28;20142;-62
2022/10/18 05:47:38;;;;;;;12.05;4.63;;;;;;;12.11;70.01;99923.53;4989661;28;20501;-61
2022/10/18 05:50:23;;;;;;;10.43;6.00;;;;;;;12.17;69.97;99929.28;4987949;28;20129;-61
2022/10/18 05:53:08;;;;;;;12.55;5.45;;;;;;;12.31;69.33;99925.00;4979186;28;20077;-62
2022/10/18 05:56:00;;;;;;;11.43;5.22;;;;;;;12.47;68.67;99924.97;4992054;28;20118;-62
2022/10/18 05:58:49;;;;;;;9.52;5.70;;;;;;;12.56;68.46;99929.69;4986778;28;20043;-62
2022/10/18 06:01:36;;;;;;;7.68;4.72;;;;;;;12.76;67.34;99922.41;4988318;28;20390;-61
2022/10/18 06:04:21;;;;;;;7.78;5.18;;;;;;;12.96;66.21;99916.91;4989638;28;20108;-62
2022/10/18 06:07:10;;;;;;;9.00;4.70;;;;;;;12.91;66.33;99927.72;4988931;28;20046;-62
2022/10/18 06:09:55;;;;;;;7.70;4.75;;;;;;;13.19;65.18;99926.00;4990030;28;20399;-60
2022/10/18 06:12:39;;;;;;;11.63;5.40;;;;;;;13.41;64.32;99925.56;4986161;28;20048;-61
2022/10/18 06:15:24;;;;;;;7.60;5.35;;;;;;;13.35;64.26;99927.72;4990314;28;20504;-61
2022/10/18 06:18:08;;;;;;;8.77;4.80;;;;;;;13.69;63.32;99922.16;4990849;28;20042;-60
2022/10/18 06:20:57;;;;;;;9.18;4.97;;;;;;;13.87;62.78;99925.41;4986590;28;20048;-61
2022/10/18 06:23:42;;;;;;;8.90;3.88;;;;;;;14.38;60.64;99922.09;4990465;28;20045;-60
2022/10/18 06:26:29;;;;;;;7.32;4.20;;;;;;;14.12;60.53;99922.03;4994442;28;20136;-60
2022/10/18 06:29:13;;;;;;;7.93;4.35;;;;;;;14.18;60.97;99927.84;4995299;28;20042;-61
2022/10/18 06:31:58;;;;;;;8.60;5.00;;;;;;;14.29;60.59;99930.63;4991566;28;20085;-62
2022/10/18 06:34:43;;;;;;;9.35;4.68;;;;;;;14.34;60.32;99925.91;5011931;28;20049;-62
2022/10/18 06:37:29;;;;;;;8.98;4.70;;;;;;;14.49;59.73;99928.47;4990017;28;20481;-63
2022/10/18 06:40:14;;;;;;;9.63;5.20;;;;;;;14.64;58.88;99931.84;4994831;28;20420;-63
2022/10/18 06:43:01;;;;;;;14.35;5.97;;;;;;;14.71;59.42;99930.50;4993922;28;20053;-62
2022/10/18 06:45:48;;;;;;;7.40;4.82;;;;;;;14.99;58.45;99933.06;4992584;28;20383;-61
2022/10/18 06:48:34;;;;;;;7.03;4.57;;;;;;;15.08;58.92;99929.78;4991319;28;20109;-62
2022/10/18 06:51:19;;;;;;;12.10;4.90;;;;;;;15.16;59.29;99926.66;4992862;28;20467;-62
2022/10/18 06:54:03;;;;;;;9.20;4.65;;;;;;;15.20;59.82;99924.63;4996338;28;20116;-61
2022/10/18 06:56:49;;;;;;;8.38;4.53;;;;;;;15.34;58.96;99927.13;4992862;28;20569;-62
2022/10/18 06:59:37;;;;;;;8.35;4.15;;;;;;;15.47;58.50;99926.28;4996133;28;20042;-62
2022/10/18 07:02:21;;;;;;;9.48;5.60;;;;;;;15.35;59.52;99939.41;4990139;28;20114;-62
2022/10/18 07:05:07;;;;;;;9.68;4.80;;;;;;;15.60;58.75;99940.28;4981270;28;20066;-61
2022/10/18 07:07:52;;;;;;;8.52;4.93;;;;;;;15.89;57.67;99941.81;4990240;28;20389;-64
2022/10/18 07:10:37;;;;;;;8.57;4.72;;;;;;;15.74;57.41;99941.97;4992311;28;20077;-61
2022/10/18 07:13:22;;;;;;;9.43;5.35;;;;;;;15.84;58.09;99943.94;4995174;28;20447;-61
2022/10/18 07:16:10;;;;;;;8.85;4.78;;;;;;;15.80;57.84;99927.44;5009848;28;20490;-62
2022/10/18 07:18:54;;;;;;;7.38;4.55;;;;;;;16.30;56.21;99939.75;4995573;28;20042;-61
2022/10/18 07:21:39;;;;;;;8.30;4.97;;;;;;;16.28;57.18;99938.16;4995250;28;20141;-61
2022/10/18 07:24:24;;;;;;;8.95;5.85;;;;;;;16.25;56.62;99939.25;4996250;28;20058;-61
2022/10/18 07:27:09;;;;;;;9.98;5.15;;;;;;;16.87;54.60;99931.97;4990119;28;20046;-62
2022/10/18 07:29:53;;;;;;;9.07;5.50;;;;;;;16.98;54.72;99928.50;4991748;28;20467;-62
2022/10/18 07:32:38;;;;;;;12.93;5.90;;;;;;;16.90;55.11;99943.28;4992666;28;20064;-63
2022/10/18 07:35:22;;;;;;;7.38;4.85;;;;;;;17.07;55.84;99940.19;5012716;28;20120;-62
2022/10/18 07:38:07;;;;;;;12.05;5.70;;;;;;;17.27;53.46;99939.63;4990818;28;20129;-63
2022/10/18 07:40:57;;;;;;;9.88;5.22;;;;;;;17.48;53.75;99932.63;5003086;28;20478;-62
2022/10/18 07:43:45;;;;;;;8.70;5.63;;;;;;;17.61;52.72;99932.50;5002273;28;20109;-61
2022/10/18 07:46:30;;;;;;;9.30;5.90;;;;;;;17.85;52.25;99936.78;4991996;28;20104;-62
2022/10/18 07:49:14;;;;;;;10.32;5.43;;;;;;;18.33;51.30;99931.22;4988996;28;20042;-64
2022/10/18 07:51:59;;;;;;;11.88;6.40;;;;;;;18.26;51.17;99928.28;4994241;28;20141;-62
2022/10/18 07:54:43;;;;;;;8.43;5.40;;;;;;;17.98;51.36;99927.84;4994507;28;20161;-63
2022/10/18 07:57:28;;;;;;;7.53;4.75;;;;;;;18.79;49.38;99931.00;4999551;28;20162;-62
2022/10/18 08:00:13;;;;;;;7.80;3.80;;;;;;;19.88;47.22;99921.63;4994159;28;20076;-63
2022/10/18 08:02:59;;;;;;;9.13;5.30;;;;;;;20.01;46.60;99921.38;4993945;28;20176;-62
2022/10/18 08:05:51;;;;;;;9.90;4.05;;;;;;;21.05;43.74;99929.69;4993298;28;20081;-63
2022/10/18 08:08:37;;;;;;;6.97;4.38;;;;;;;19.59;45.00;99922.44;5003792;28;20045;-62
2022/10/18 08:11:24;;;;;;;7.10;3.47;;;;;;;20.12;45.89;99928.44;4990932;28;20034;-62
2022/10/18 08:14:09;;;;;;;6.53;4.15;;;;;;;20.61;44.91;99922.25;4991243;28;20446;-62
2022/10/18 08:16:54;;;;;;;7.60;4.38;;;;;;;21.32;44.16;99921.88;4990239;28;20038;-63
2022/10/18 08:19:38;;;;;;;7.88;5.10;;;;;;;20.27;45.64;99914.72;4972927;28;20042;-63
2022/10/18 08:22:24;;;;;;;9.27;4.53;;;;;;;20.51;44.75;99918.75;4990091;28;20089;-62
2022/10/18 08:25:08;;;;;;;9.77;4.97;;;;;;;21.04;43.71;99924.50;4994300;28;20089;-63
2022/10/18 08:27:53;;;;;;;8.13;3.92;;;;;;;21.89;42.88;99907.56;4991911;28;20058;-63
2022/10/18 08:30:38;;;;;;;13.27;4.57;;;;;;;21.54;42.25;99909.97;4991274;28;20585;-61
2022/10/18 08:33:23;;;;;;;6.82;4.18;;;;;;;21.19;44.31;99905.41;4992777;28;20039;-61
2022/10/18 08:36:11;;;;;;;7.85;5.00;;;;;;;22.13;41.31;99899.94;4991252;28;20043;-62
2022/10/18 08:38:56;;;;;;;6.75;4.28;;;;;;;22.18;42.46;99897.63;4988271;28;20826;-62
2022/10/18 08:42:02;;;;;;;8.68;4.28;;;;;;;21.80;41.70;99897.81;4987771;28;20410;-62
2022/10/18 08:44:50;;;;;;;10.52;4.65;;;;;;;21.41;42.69;99899.69;4996756;28;20395;-62
2022/10/18 08:47:38;;;;;;;9.35;4.20;;;;;;;22.35;41.13;99895.09;4986887;28;20136;-61
2022/10/18 08:50:27;;;;;;;8.95;4.93;;;;;;;21.46;42.22;99885.09;4988599;28;20061;-61
2022/10/18 08:53:18;;;;;;;9.93;4.87;;;;;;;21.93;41.92;99885.91;4981240;28;20144;-64
2022/10/18 08:56:05;;;;;;;;;;;;;;;22.38;41.28;99890.31;4990822;28;20077;-62
2022/10/18 08:58:49;;;;;;;7.95;4.20;;;;;;;22.39;41.62;99877.81;4987530;28;19993;-62
2022/10/18 09:01:46;;;;;;;7.53;4.10;;;;;;;23.54;39.76;99873.22;4989748;28;20388;-62
2022/10/18 09:04:53;;;;;;;7.55;3.78;;;;;;;24.22;38.57;99877.69;4990425;28;20085;-62
2022/10/18 09:07:56;;;;;;;8.27;4.57;;;;;;;23.34;39.30;99878.00;4988159;28;20481;-62
2022/10/18 09:11:24;;;;;;;6.30;4.15;;;;;;;24.88;37.24;99878.56;4989779;28;20550;-62
2022/10/18 09:14:15;;;;;;;8.60;4.63;;;;;;;22.76;39.99;99875.88;4925463;29;20056;-62
2022/10/18 09:17:27;;;;;;;5.50;3.95;;;;;;;23.59;38.44;99868.22;4927816;29;20463;-62
2022/10/18 09:20:45;;;;;;;10.18;4.03;;;;;;;23.57;39.46;99867.56;4920391;29;20507;-63
2022/10/18 09:23:47;;;;;;;9.27;4.63;;;;;;;24.03;37.85;99858.25;4881652;29;20097;-62
2022/10/18 09:26:43;;;;;;;7.25;4.55;;;;;;;24.77;37.22;99861.00;4886871;29;20123;-62
2022/10/18 09:29:36;;;;;;;7.22;4.55;;;;;;;23.65;38.41;99856.03;4900141;29;20490;-63
2022/10/18 09:32:47;;;;;;;5.88;4.72;;;;;;;23.77;38.11;99861.06;4887483;29;20551;-63
2022/10/18 09:35:46;;;;;;;7.72;4.40;;;;;;;24.26;37.79;99854.06;4886507;29;20048;-62
2022/10/18 09:38:39;;;;;;;8.10;4.25;;;;;;;25.06;36.64;99863.13;4892192;29;20048;-63
2022/10/18 09:41:52;;;;;;;8.38;4.25;;;;;;;25.45;35.46;99850.69;4880038;29;20060;-62
2022/10/18 09:45:07;;;;;;;7.32;4.47;;;;;;;24.84;36.52;99856.66;4885521;29;20055;-62
2022/10/18 09:48:19;;;;;;;7.28;4.07;;;;;;;25.61;36.12;99851.59;4900085;29;20091;-64
2022/10/18 09:51:11;;;;;;;6.43;4.60;;;;;;;26.32;34.38;99850.59;4917219;29;20538;-63
2022/10/18 09:54:14;;;;;;;11.68;3.90;;;;;;;26.80;35.73;99846.72;4916708;29;20125;-64
2022/10/18 09:57:05;;;;;;;6.97;4.38;;;;;;;25.54;35.51;99846.09;4913962;29;20044;-63
2022/10/18 09:59:50;;;;;;;7.45;4.65;;;;;;;26.68;33.75;99845.53;4933078;28;20059;-63
2022/10/18 10:02:34;;;;;;;7.00;4.25;;;;;;;26.92;34.38;99847.09;4953815;28;20130;-63
2022/10/18 10:05:19;;;;;;;8.93;4.57;;;;;;;27.05;33.05;99830.34;4952662;28;20097;-63
2022/10/18 10:08:03;;;;;;;7.05;4.65;;;;;;;26.67;33.16;99833.94;4952707;28;20483;-63
2022/10/18 10:10:48;;;;;;;6.28;3.70;;;;;;;27.18;34.43;99826.97;4952197;28;20043;-63
2022/10/18 10:13:33;;;;;;;7.35;3.80;;;;;;;26.03;35.35;99829.88;4955202;28;20042;-63
2022/10/18 10:16:17;;;;;;;5.82;3.85;;;;;;;26.50;33.76;99829.78;4979252;28;20038;-64
2022/10/18 10:19:02;;;;;;;8.40;3.50;;;;;;;28.00;32.27;99823.22;4991696;28;20073;-64
2022/10/18 10:21:50;;;;;;;4.85;3.60;;;;;;;27.95;31.67;99822.13;4992262;28;20544;-64
2022/10/18 10:24:51;;;;;;;5.18;3.45;;;;;;;28.16;32.73;99816.72;4994354;28;20136;-64
2022/10/18 10:27:42;;;;;;;5.95;4.10;;;;;;;28.28;31.37;99819.69;4993234;28;20552;-64
2022/10/18 10:30:30;;;;;;;9.93;4.30;;;;;;;27.52;31.23;99813.88;4979969;28;20472;-63
2022/10/18 10:33:35;;;;;;;6.10;3.40;;;;;;;27.91;30.74;99811.75;4981284;28;20038;-63
2022/10/18 10:36:20;;;;;;;8.55;4.07;;;;;;;26.64;32.49;99820.03;4990819;28;20069;-64
2022/10/18 10:39:17;;;;;;;6.10;3.58;;;;;;;26.67;32.18;99812.44;4990764;28;20065;-63
2022/10/18 10:42:02;;;;;;;5.30;3.55;;;;;;;28.03;31.03;99804.00;4996545;28;20042;-63
2022/10/18 10:44:54;;;;;;;4.28;3.05;;;;;;;28.84;30.73;99806.34;4997532;28;20490;-63
2022/10/18 10:47:39;;;;;;;7.25;3.55;;;;;;;29.45;30.30;99800.34;4997100;28;20065;-63
2022/10/18 10:50:26;;;;;;;5.00;3.38;;;;;;;28.95;29.86;99801.44;4982597;28;20046;-63
2022/10/18 10:53:27;;;;;;;6.22;2.85;;;;;;;29.16;30.42;99803.19;4993289;28;20493;-62
2022/10/18 10:56:28;;;;;;;6.03;3.22;;;;;;;30.33;30.27;99790.41;4974625;28;20529;-63
2022/10/18 10:59:16;;;;;;;7.30;3.70;;;;;;;31.28;27.09;99787.31;4995476;28;20112;-62
2022/10/18 11:02:12;;;;;;;6.78;3.33;;;;;;;29.44;29.77;99787.88;4990543;28;20050;-64
2022/10/18 11:05:20;;;;;;;5.63;3.10;;;;;;;29.97;29.24;99780.84;4994917;28;20038;-61
2022/10/18 11:08:05;;;;;;;4.88;3.33;;;;;;;30.47;28.42;99783.06;4975775;28;20039;-61
2022/10/18 11:11:18;;;;;;;5.30;3.63;;;;;;;31.14;27.51;99772.22;4994609;28;20393;-60
2022/10/18 11:14:16;;;;;;;6.75;3.20;;;;;;;30.23;28.76;99773.78;4989814;28;20129;-62
2022/10/18 11:17:20;;;;;;;8.57;3.40;;;;;;;30.80;26.79;99761.59;4996405;28;20573;-61
2022/10/18 11:20:26;;;;;;;6.97;3.67;;;;;;;30.86;27.53;99753.44;4991192;28;20070;-61
2022/10/18 11:23:13;;;;;;;7.90;3.35;;;;;;;30.24;28.65;99753.84;4991807;28;20105;-61
2022/10/18 11:26:12;;;;;;;5.57;3.25;;;;;;;29.88;29.27;99756.78;4994812;28;20037;-61
2022/10/18 11:29:11;;;;;;;11.05;3.67;;;;;;;30.83;28.23;99747.66;4994839;28;20145;-61
2022/10/18 11:32:10;;;;;;;7.43;3.03;;;;;;;30.79;27.83;99743.66;4990763;28;20057;-60
2022/10/18 11:35:21;;;;;;;8.82;3.50;;;;;;;29.66;29.71;99742.69;4989704;28;20419;-61
2022/10/18 11:38:13;;;;;;;6.57;3.22;;;;;;;31.09;28.79;99737.72;4992242;28;20405;-61
2022/10/18 11:41:22;;;;;;;6.97;3.05;;;;;;;30.32;27.20;99755.50;4990055;28;20045;-61
2022/10/18 11:44:46;;;;;;;5.30;3.30;;;;;;;30.54;28.32;99739.81;4996508;28;20503;-62
2022/10/18 11:47:53;;;;;;;9.52;3.75;;;;;;;30.52;27.78;99728.38;4979577;28;20030;-63
2022/10/18 11:50:43;;;;;;;5.57;3.50;;;;;;;31.03;27.56;99722.34;4996253;28;20038;-63
2022/10/18 11:53:59;;;;;;;7.00;3.80;;;;;;;29.51;28.47;99732.88;4992659;28;20030;-61
2022/10/18 11:57:04;;;;;;;4.18;2.97;;;;;;;29.67;28.84;99730.03;4990366;28;20458;-60
2022/10/18 12:00:21;;;;;;;5.22;4.00;;;;;;;27.55;30.74;99740.00;4991420;28;20146;-61
2022/10/18 12:03:15;;;;;;;5.78;3.35;;;;;;;28.81;30.70;99720.50;4986874;28;20096;-62
2022/10/18 12:06:10;;;;;;;10.15;3.78;;;;;;;28.63;31.65;99729.97;4990924;28;20119;-61
2022/10/18 12:09:09;;;;;;;4.28;3.25;;;;;;;30.09;29.70;99714.38;4991817;28;20121;-60
2022/10/18 12:12:00;;;;;;;3.67;2.97;;;;;;;31.39;29.04;99706.50;4989354;28;20042;-61
2022/10/18 12:14:53;;;;;;;5.28;2.90;;;;;;;31.46;27.16;99705.44;4988703;28;20360;-61
2022/10/18 12:17:49;;;;;;;6.25;3.22;;;;;;;31.24;27.65;99696.81;4990858;28;20042;-60
2022/10/18 12:20:45;;;;;;;3.97;3.00;;;;;;;29.78;28.84;99704.25;4989095;28;20044;-61
2022/10/18 12:23:58;;;;;;;6.07;3.17;;;;;;;31.39;26.82;99687.56;4991019;28;20060;-60
2022/10/18 12:26:47;;;;;;;5.45;3.42;;;;;;;31.21;27.63;99683.72;4968073;28;20219;-61
2022/10/18 12:29:59;;;;;;;7.38;3.45;;;;;;;31.45;28.02;99681.28;4964663;28;20099;-60
2022/10/18 12:32:44;;;;;;;5.85;3.55;;;;;;;31.28;26.51;99676.41;4961627;28;20439;-60
2022/10/18 12:35:38;;;;;;;6.97;4.20;;;;;;;29.96;27.85;99677.44;4960775;28;20133;-63
2022/10/18 12:38:28;;;;;;;5.13;3.38;;;;;;;30.61;28.12;99678.47;4966650;28;20382;-61
2022/10/18 12:41:22;;;;;;;3.85;2.75;;;;;;;31.73;27.13;99673.75;4964072;28;20043;-61
2022/10/18 12:44:29;;;;;;;7.15;3.35;;;;;;;31.19;27.63;99666.91;4959218;28;20061;-64
2022/10/18 12:47:32;;;;;;;4.88;3.05;;;;;;;32.20;28.39;99670.56;4965361;28;20126;-56
2022/10/18 12:50:33;;;;;;;6.68;3.22;;;;;;;32.61;24.70;99665.44;4961648;28;20450;-50
2022/10/18 12:53:25;;;;;;;6.63;3.55;;;;;;;31.75;25.63;99672.47;4965299;28;20454;-51
2022/10/18 12:56:27;;;;;;;7.18;3.53;;;;;;;30.28;27.10;99665.94;4964079;28;20050;-57
2022/10/18 12:59:14;;;;;;;8.90;3.95;;;;;;;28.69;29.24;99670.94;4964718;28;20073;-51
2022/10/18 13:01:59;;;;;;;7.50;3.85;;;;;;;29.04;29.17;99661.88;4962786;28;20042;-53
2022/10/18 13:04:43;;;;;;;7.00;3.45;;;;;;;29.79;29.57;99666.25;4988437;28;20034;-48
2022/10/18 13:07:39;;;;;;;7.18;3.83;;;;;;;28.88;28.87;99656.66;4990133;28;20058;-42
2022/10/18 13:10:35;;;;;;;8.50;4.10;;;;;;;27.72;30.58;99654.50;4989530;28;20034;-52
2022/10/18 13:13:36;;;;;;;7.90;4.30;;;;;;;27.99;30.50;99651.16;4986561;28;20470;-48
2022/10/18 13:16:21;;;;;;;;;;;;;;;27.96;30.23;99654.25;4972997;28;20431;-52
2022/10/18 13:19:21;;;;;;;6.45;3.20;;;;;;;28.70;29.50;99640.25;4990600;28;19924;-49
2022/10/18 13:22:16;;;;;;;7.90;3.50;;;;;;;28.25;30.03;99636.16;4992165;28;20122;-54